Time;durP1;ratioP1;P1;durP2;ratioP2;P2;SDS_P1;SDS_P2;PMS_P1;PMS_P2;Temp;Humidity;BMP_temperature;BMP_pressure;BME280_temperature;BME280_humidity;BME280_pressure;Samples;Min_cycle;Max_cycle;Signal;HPM_P1;HPM_P2
2023/08/10 00:00:16;;;;;;;;;;;16.90;99.90;;;;;;5070497;28;19904;-68
2023/08/10 00:02:44;;;;;;;;;;;16.80;99.90;;;;;;5070359;28;19908;-69
2023/08/10 00:05:10;;;;;;;;;;;16.70;99.90;;;;;;5070005;28;19999;-69
2023/08/10 00:07:36;;;;;;;;;;;16.60;99.90;;;;;;5069792;28;20332;-68
2023/08/10 00:10:08;;;;;;;;;;;16.70;99.90;;;;;;5069645;28;19908;-68
2023/08/10 00:12:37;;;;;;;;;;;16.70;99.90;;;;;;5070120;28;19913;-69
2023/08/10 00:15:03;;;;;;;;;;;16.70;99.90;;;;;;5069723;28;19908;-69
2023/08/10 00:17:29;;;;;;;;;;;16.80;99.90;;;;;;5069650;28;19909;-69
2023/08/10 00:19:54;;;;;;;;;;;16.80;99.90;;;;;;5069252;28;19913;-69
2023/08/10 00:22:20;;;;;;;;;;;16.80;99.90;;;;;;5068950;28;19983;-69
2023/08/10 00:24:47;;;;;;;;;;;16.70;99.90;;;;;;5069515;28;19905;-68
2023/08/10 00:27:12;;;;;;;;;;;16.70;99.90;;;;;;5069974;28;20368;-69
2023/08/10 00:29:38;;;;;;;;;;;16.70;99.90;;;;;;5069544;28;19995;-68
2023/08/10 00:32:04;;;;;;;;;;;16.70;99.90;;;;;;5069649;28;19912;-68
2023/08/10 00:34:29;;;;;;;;;;;16.70;99.90;;;;;;5026470;28;1249435;-69
2023/08/10 00:36:55;;;;;;;;;;;16.70;99.90;;;;;;5070173;28;20241;-69
2023/08/10 00:39:21;;;;;;;;;;;16.60;99.90;;;;;;5068984;28;19915;-68
2023/08/10 00:41:46;;;;;;;;;;;16.60;99.90;;;;;;5070075;28;19912;-68
2023/08/10 00:44:13;;;;;;;;;;;16.60;99.90;;;;;;5070491;28;19927;-69
2023/08/10 00:46:39;;;;;;;;;;;16.50;99.90;;;;;;5070088;28;19915;-68
2023/08/10 00:49:04;;;;;;;;;;;16.50;99.90;;;;;;5070327;28;19912;-70
2023/08/10 00:51:30;;;;;;;;;;;16.50;99.90;;;;;;5070400;28;19905;-68
2023/08/10 00:53:56;;;;;;;;;;;16.40;99.90;;;;;;5070120;28;19909;-68
2023/08/10 00:56:21;;;;;;;;;;;16.40;99.90;;;;;;5070248;28;19908;-70
2023/08/10 00:58:47;;;;;;;;;;;16.40;99.90;;;;;;5070146;28;19916;-69
2023/08/10 01:01:13;;;;;;;;;;;16.40;99.90;;;;;;5070179;28;19938;-70
2023/08/10 01:03:38;;;;;;;;;;;16.40;99.90;;;;;;5070543;28;19958;-69
2023/08/10 01:06:20;;;;;;;;;;;16.30;99.90;;;;;;5070324;28;20233;-69
2023/08/10 01:08:52;;;;;;;;;;;16.30;99.90;;;;;;5069968;28;19908;-68
2023/08/10 01:11:30;;;;;;;;;;;16.20;99.90;;;;;;5069914;28;19909;-69
2023/08/10 01:14:05;;;;;;;;;;;16.20;99.90;;;;;;5069880;28;20118;-69
2023/08/10 01:16:32;;;;;;;;;;;16.20;99.90;;;;;;5069955;28;19908;-68
2023/08/10 01:18:58;;;;;;;;;;;16.10;99.90;;;;;;5070070;28;19904;-69
2023/08/10 01:21:40;;;;;;;;;;;16.10;99.90;;;;;;5070212;28;19944;-69
2023/08/10 01:24:12;;;;;;;;;;;16.10;99.90;;;;;;5069962;28;19969;-69
2023/08/10 01:26:38;;;;;;;;;;;16.00;99.90;;;;;;5069725;28;19908;-68
2023/08/10 01:29:04;;;;;;;;;;;16.00;99.90;;;;;;5069738;28;20339;-69
2023/08/10 01:31:30;;;;;;;;;;;15.90;99.90;;;;;;5069593;28;19969;-67
2023/08/10 01:33:56;;;;;;;;;;;15.90;99.90;;;;;;5073227;28;19916;-68
2023/08/10 01:36:22;;;;;;;;;;;15.90;99.90;;;;;;5073483;28;20355;-68
2023/08/10 01:38:47;;;;;;;;;;;15.80;99.90;;;;;;5073599;28;19909;-68
2023/08/10 01:41:13;;;;;;;;;;;15.80;99.90;;;;;;5073202;28;20254;-69
2023/08/10 01:43:38;;;;;;;;;;;15.80;99.90;;;;;;5072045;28;20307;-69
2023/08/10 01:46:04;;;;;;;;;;;15.80;99.90;;;;;;5071927;28;20289;-68
2023/08/10 01:48:33;;;;;;;;;;;15.80;99.90;;;;;;5073532;28;19912;-69
2023/08/10 01:51:00;;;;;;;;;;;15.80;99.90;;;;;;5072977;28;19908;-69
2023/08/10 01:53:30;;;;;;;;;;;15.70;99.90;;;;;;5072805;28;20225;-69
2023/08/10 01:55:56;;;;;;;;;;;15.70;99.90;;;;;;5072812;28;20220;-69
2023/08/10 01:58:22;;;;;;;;;;;15.80;99.90;;;;;;5072807;28;19909;-68
2023/08/10 02:00:47;;;;;;;;;;;15.70;99.90;;;;;;5072686;28;19916;-69
2023/08/10 02:03:13;;;;;;;;;;;15.60;99.90;;;;;;5073731;28;19958;-68
2023/08/10 02:05:39;;;;;;;;;;;15.60;99.90;;;;;;5072854;28;20490;-68
2023/08/10 02:08:06;;;;;;;;;;;15.60;99.90;;;;;;5073170;28;19970;-69
2023/08/10 02:10:32;;;;;;;;;;;15.50;99.90;;;;;;5073001;28;19909;-70
2023/08/10 02:12:57;;;;;;;;;;;15.40;99.90;;;;;;5072562;28;19919;-69
2023/08/10 02:15:23;;;;;;;;;;;15.50;99.90;;;;;;5073162;28;19904;-69
2023/08/10 02:17:49;;;;;;;;;;;15.40;99.90;;;;;;5071288;28;20265;-69
2023/08/10 02:20:14;;;;;;;;;;;15.40;99.90;;;;;;5072505;28;19912;-70
2023/08/10 02:22:42;;;;;;;;;;;15.40;99.90;;;;;;5072793;28;19912;-69
2023/08/10 02:25:08;;;;;;;;;;;15.30;99.90;;;;;;5072684;28;19908;-69
2023/08/10 02:27:35;;;;;;;;;;;15.30;99.90;;;;;;5073201;28;20337;-70
2023/08/10 02:30:01;;;;;;;;;;;15.20;99.90;;;;;;5072392;28;20314;-70
2023/08/10 02:32:26;;;;;;;;;;;15.30;99.90;;;;;;5072224;28;19912;-71
2023/08/10 02:34:52;;;;;;;;;;;15.20;99.90;;;;;;5072280;28;19944;-69
2023/08/10 02:37:17;;;;;;;;;;;15.20;99.90;;;;;;5072154;28;20254;-70
2023/08/10 02:39:43;;;;;;;;;;;15.20;99.90;;;;;;5072113;28;19912;-69
2023/08/10 02:42:08;;;;;;;;;;;15.20;99.90;;;;;;5072631;28;19896;-69
2023/08/10 02:44:34;;;;;;;;;;;15.20;99.90;;;;;;5071351;28;19954;-69
2023/08/10 02:46:59;;;;;;;;;;;15.20;99.90;;;;;;5071204;28;20350;-70
2023/08/10 02:49:25;;;;;;;;;;;15.20;99.90;;;;;;5072182;28;19908;-69
2023/08/10 02:51:50;;;;;;;;;;;15.20;99.90;;;;;;5071899;28;19947;-69
2023/08/10 02:54:16;;;;;;;;;;;15.10;99.90;;;;;;5071322;28;19905;-70
2023/08/10 02:56:41;;;;;;;;;;;15.20;99.90;;;;;;5071851;28;20311;-70
2023/08/10 02:59:07;;;;;;;;;;;15.20;99.90;;;;;;5071776;28;20399;-70
2023/08/10 03:01:33;;;;;;;;;;;15.20;99.90;;;;;;5071802;28;20385;-70
2023/08/10 03:03:58;;;;;;;;;;;15.20;99.90;;;;;;5070585;28;20330;-69
2023/08/10 03:06:24;;;;;;;;;;;15.20;99.90;;;;;;5072122;28;19900;-70
2023/08/10 03:08:49;;;;;;;;;;;15.20;99.90;;;;;;5071500;28;19912;-70
2023/08/10 03:11:15;;;;;;;;;;;15.20;99.90;;;;;;5070572;28;20303;-70
2023/08/10 03:13:40;;;;;;;;;;;15.20;99.90;;;;;;5071521;28;19962;-69
2023/08/10 03:16:06;;;;;;;;;;;15.20;99.90;;;;;;5071548;28;20321;-70
2023/08/10 03:18:32;;;;;;;;;;;15.20;99.90;;;;;;5071762;28;19904;-69
2023/08/10 03:20:57;;;;;;;;;;;15.20;99.90;;;;;;5071704;28;19919;-69
2023/08/10 03:23:23;;;;;;;;;;;15.20;99.90;;;;;;5071530;28;19912;-70
2023/08/10 03:25:49;;;;;;;;;;;15.10;99.90;;;;;;5071397;28;19926;-69
2023/08/10 03:28:14;;;;;;;;;;;15.10;99.90;;;;;;5071469;28;19912;-69
2023/08/10 03:30:41;;;;;;;;;;;15.10;99.90;;;;;;5071635;28;19920;-69
2023/08/10 03:33:06;;;;;;;;;;;15.10;99.90;;;;;;5070946;28;19928;-70
2023/08/10 03:35:32;;;;;;;;;;;15.10;99.90;;;;;;5071161;28;19909;-70
2023/08/10 03:37:57;;;;;;;;;;;15.10;99.90;;;;;;5071368;28;20385;-69
2023/08/10 03:40:23;;;;;;;;;;;15.10;99.90;;;;;;5071087;28;19912;-69
2023/08/10 03:42:48;;;;;;;;;;;15.00;99.90;;;;;;5071125;28;19943;-70
2023/08/10 03:45:14;;;;;;;;;;;15.00;99.90;;;;;;5071378;28;20305;-70
2023/08/10 03:47:40;;;;;;;;;;;15.00;99.90;;;;;;5071096;28;20003;-70
2023/08/10 03:50:06;;;;;;;;;;;15.00;99.90;;;;;;5070896;28;19909;-70
2023/08/10 03:52:31;;;;;;;;;;;15.00;99.90;;;;;;5070830;28;20335;-70
2023/08/10 03:54:57;;;;;;;;;;;14.90;99.90;;;;;;5069523;28;19991;-70
2023/08/10 03:57:23;;;;;;;;;;;14.90;99.90;;;;;;5071234;28;19911;-70
2023/08/10 03:59:48;;;;;;;;;;;14.90;99.90;;;;;;5070726;28;20269;-70
2023/08/10 04:02:14;;;;;;;;;;;14.90;99.90;;;;;;5070808;28;20011;-70
2023/08/10 04:04:39;;;;;;;;;;;14.90;99.90;;;;;;5071017;28;19912;-70
2023/08/10 04:07:07;;;;;;;;;;;15.00;99.90;;;;;;5070706;28;20357;-70
2023/08/10 04:09:33;;;;;;;;;;;15.00;99.90;;;;;;5071320;28;19915;-69
2023/08/10 04:11:59;;;;;;;;;;;14.90;99.90;;;;;;5070404;28;20452;-69
2023/08/10 04:14:25;;;;;;;;;;;14.90;99.90;;;;;;5070929;28;20370;-69
2023/08/10 04:16:51;;;;;;;;;;;14.90;99.90;;;;;;5070505;28;19919;-69
2023/08/10 04:19:17;;;;;;;;;;;15.00;99.90;;;;;;5070389;28;19908;-69
2023/08/10 04:21:44;;;;;;;;;;;15.00;99.90;;;;;;5070663;28;19915;-69
2023/08/10 04:24:09;;;;;;;;;;;15.10;99.90;;;;;;5070784;28;19915;-69
2023/08/10 04:26:36;;;;;;;;;;;15.10;99.90;;;;;;5070398;28;19916;-70
2023/08/10 04:29:03;;;;;;;;;;;15.10;99.90;;;;;;5070575;28;19992;-70
2023/08/10 04:31:28;;;;;;;;;;;15.00;99.90;;;;;;5069223;28;19973;-69
2023/08/10 04:33:54;;;;;;;;;;;15.00;99.90;;;;;;5070268;28;19925;-70
2023/08/10 04:36:19;;;;;;;;;;;15.00;99.90;;;;;;5070825;28;19993;-69
2023/08/10 04:38:45;;;;;;;;;;;15.00;99.90;;;;;;5070324;28;20276;-70
2023/08/10 04:41:11;;;;;;;;;;;15.10;99.90;;;;;;5070270;28;20345;-70
2023/08/10 04:43:36;;;;;;;;;;;15.10;99.90;;;;;;5070326;28;19919;-70
2023/08/10 04:46:02;;;;;;;;;;;15.10;99.90;;;;;;5070403;28;19916;-70
2023/08/10 04:48:27;;;;;;;;;;;15.10;99.90;;;;;;5069641;28;20307;-70
2023/08/10 04:50:53;;;;;;;;;;;15.00;99.90;;;;;;5070512;28;20027;-70
2023/08/10 04:53:18;;;;;;;;;;;15.10;99.90;;;;;;5070102;28;19982;-70
2023/08/10 04:55:44;;;;;;;;;;;15.10;99.90;;;;;;5070202;28;19935;-70
2023/08/10 04:58:10;;;;;;;;;;;15.10;99.90;;;;;;5070304;28;20319;-69
2023/08/10 05:00:35;;;;;;;;;;;15.20;99.90;;;;;;5069437;28;19976;-70
2023/08/10 05:03:01;;;;;;;;;;;15.20;99.90;;;;;;5068915;28;19909;-69
2023/08/10 05:05:27;;;;;;;;;;;15.30;99.90;;;;;;5068950;28;19916;-70
2023/08/10 05:07:52;;;;;;;;;;;15.40;99.90;;;;;;5072066;28;20323;-69
2023/08/10 05:10:18;;;;;;;;;;;15.40;99.90;;;;;;5073714;28;20410;-70
2023/08/10 05:12:43;;;;;;;;;;;15.40;99.90;;;;;;5073656;28;19916;-70
2023/08/10 05:15:09;;;;;;;;;;;15.40;99.90;;;;;;5074242;28;19900;-70
2023/08/10 05:17:37;;;;;;;;;;;15.50;99.90;;;;;;5072507;28;19912;-70
2023/08/10 05:20:10;;;;;;;;;;;15.50;99.90;;;;;;5073706;28;19927;-69
2023/08/10 05:22:40;;;;;;;;;;;15.50;99.90;;;;;;5073578;28;20258;-70
2023/08/10 05:25:06;;;;;;;;;;;15.60;99.90;;;;;;5072278;28;19912;-70
2023/08/10 05:27:32;;;;;;;;;;;15.60;99.90;;;;;;5072711;28;19931;-70
2023/08/10 05:29:57;;;;;;;;;;;15.60;99.90;;;;;;5073555;28;19908;-70
2023/08/10 05:32:23;;;;;;;;;;;15.70;99.90;;;;;;5073488;28;19912;-69
2023/08/10 05:34:48;;;;;;;;;;;15.80;99.90;;;;;;5071980;28;19921;-68
2023/08/10 05:37:14;;;;;;;;;;;15.80;99.90;;;;;;5073284;28;19916;-69
2023/08/10 05:39:39;;;;;;;;;;;15.90;99.90;;;;;;5072611;28;19912;-69
2023/08/10 05:42:05;;;;;;;;;;;15.90;99.90;;;;;;5072045;28;20211;-70
2023/08/10 05:44:31;;;;;;;;;;;16.00;99.90;;;;;;5073152;28;20311;-70
2023/08/10 05:46:56;;;;;;;;;;;16.10;99.90;;;;;;5073154;28;19939;-69
2023/08/10 05:49:22;;;;;;;;;;;16.20;99.90;;;;;;5072979;28;20283;-70
2023/08/10 05:51:47;;;;;;;;;;;16.30;99.90;;;;;;5072969;28;19908;-70
2023/08/10 05:54:13;;;;;;;;;;;16.40;99.90;;;;;;5073448;28;20202;-70
2023/08/10 05:56:39;;;;;;;;;;;16.40;99.90;;;;;;5071714;28;20248;-70
2023/08/10 05:59:04;;;;;;;;;;;16.40;99.90;;;;;;5072894;28;19913;-69
2023/08/10 06:01:30;;;;;;;;;;;16.50;99.90;;;;;;5073009;28;19912;-69
2023/08/10 06:03:55;;;;;;;;;;;16.50;99.90;;;;;;5055705;28;19987;-71
2023/08/10 06:06:21;;;;;;;;;;;16.60;99.90;;;;;;5053164;28;19905;-69
2023/08/10 06:08:48;;;;;;;;;;;16.70;99.90;;;;;;5052812;28;19908;-70
2023/08/10 06:11:13;;;;;;;;;;;16.80;99.90;;;;;;5051532;28;20325;-69
2023/08/10 06:13:41;;;;;;;;;;;16.70;99.90;;;;;;5052358;28;19995;-70
2023/08/10 06:16:07;;;;;;;;;;;16.80;99.90;;;;;;5052720;28;19991;-70
2023/08/10 06:18:34;;;;;;;;;;;16.90;99.90;;;;;;5052958;28;20387;-72
2023/08/10 06:21:01;;;;;;;;;;;16.90;99.90;;;;;;5052928;28;20440;-67
2023/08/10 06:23:28;;;;;;;;;;;17.00;99.90;;;;;;5052424;28;20326;-69
2023/08/10 06:25:54;;;;;;;;;;;16.90;99.90;;;;;;5052596;28;19965;-72
2023/08/10 06:28:20;;;;;;;;;;;16.90;99.90;;;;;;5052259;28;19977;-73
2023/08/10 06:30:46;;;;;;;;;;;16.80;99.90;;;;;;5052199;28;20322;-74
2023/08/10 06:33:11;;;;;;;;;;;16.80;99.90;;;;;;5051438;28;20027;-74
2023/08/10 06:35:39;;;;;;;;;;;16.80;99.90;;;;;;5052381;28;19969;-75
2023/08/10 06:38:04;;;;;;;;;;;16.90;99.90;;;;;;5067874;28;19920;-75
2023/08/10 06:40:31;;;;;;;;;;;16.90;99.90;;;;;;5052146;28;19912;-74
2023/08/10 06:42:57;;;;;;;;;;;16.90;99.90;;;;;;5052403;28;19905;-75
2023/08/10 06:45:23;;;;;;;;;;;17.00;99.90;;;;;;5052668;28;19916;-75
2023/08/10 06:47:49;;;;;;;;;;;17.00;99.90;;;;;;5052046;28;19908;-75
2023/08/10 06:50:16;;;;;;;;;;;17.10;99.90;;;;;;5067753;28;19912;-74
2023/08/10 06:52:41;;;;;;;;;;;17.10;99.90;;;;;;5050521;28;19912;-74
2023/08/10 06:55:07;;;;;;;;;;;17.10;99.90;;;;;;5052018;28;19913;-71
2023/08/10 06:57:34;;;;;;;;;;;17.20;99.90;;;;;;5052306;28;19912;-71
2023/08/10 07:00:01;;;;;;;;;;;17.20;99.90;;;;;;5052116;28;19970;-71
2023/08/10 07:02:26;;;;;;;;;;;17.40;99.90;;;;;;5051808;28;19909;-71
2023/08/10 07:04:52;;;;;;;;;;;17.50;99.90;;;;;;5051613;28;20277;-73
2023/08/10 07:07:17;;;;;;;;;;;17.50;99.90;;;;;;5051828;28;19909;-72
2023/08/10 07:09:43;;;;;;;;;;;17.50;99.90;;;;;;5051766;28;19908;-72
2023/08/10 07:12:09;;;;;;;;;;;17.50;99.90;;;;;;5052558;28;19908;-72
2023/08/10 07:14:35;;;;;;;;;;;17.60;99.90;;;;;;5051832;28;19939;-72
2023/08/10 07:17:02;;;;;;;;;;;17.70;99.90;;;;;;5051592;28;20323;-71
2023/08/10 07:19:27;;;;;;;;;;;17.70;99.90;;;;;;5051529;28;19919;-70
2023/08/10 07:21:55;;;;;;;;;;;17.80;99.90;;;;;;5051310;28;19991;-72
2023/08/10 07:24:23;;;;;;;;;;;17.80;99.90;;;;;;5050776;28;19904;-75
2023/08/10 07:26:50;;;;;;;;;;;17.90;99.90;;;;;;5051537;28;19908;-74
2023/08/10 07:29:16;;;;;;;;;;;18.00;99.90;;;;;;5050356;28;20338;-74
2023/08/10 07:31:41;;;;;;;;;;;18.00;99.90;;;;;;5050861;28;19999;-75
2023/08/10 07:34:09;;;;;;;;;;;18.20;99.90;;;;;;5051086;28;19925;-73
2023/08/10 07:36:34;;;;;;;;;;;18.30;99.90;;;;;;5051968;28;19955;-72
2023/08/10 07:39:00;;;;;;;;;;;18.30;99.90;;;;;;5051214;28;19940;-74
2023/08/10 07:41:26;;;;;;;;;;;18.30;99.90;;;;;;5051389;28;20342;-74
2023/08/10 07:43:51;;;;;;;;;;;18.40;99.60;;;;;;5051116;28;20339;-73
2023/08/10 07:46:17;;;;;;;;;;;18.30;99.70;;;;;;5051225;28;19982;-74
2023/08/10 07:48:42;;;;;;;;;;;18.30;99.70;;;;;;5051277;28;19912;-73
2023/08/10 07:51:08;;;;;;;;;;;18.30;99.80;;;;;;5050759;28;19904;-73
2023/08/10 07:53:34;;;;;;;;;;;18.10;99.70;;;;;;5051340;28;19916;-73
2023/08/10 07:55:59;;;;;;;;;;;18.20;99.80;;;;;;5051775;28;20377;-74
2023/08/10 07:58:25;;;;;;;;;;;18.20;99.70;;;;;;5051289;28;20378;-73
2023/08/10 08:00:50;;;;;;;;;;;18.40;99.50;;;;;;5050822;28;19904;-75
2023/08/10 08:03:16;;;;;;;;;;;18.40;99.60;;;;;;5051637;28;20274;-75
2023/08/10 08:05:42;;;;;;;;;;;18.60;99.50;;;;;;5050195;28;19916;-75
2023/08/10 08:08:07;;;;;;;;;;;18.80;99.10;;;;;;5066673;28;19908;-75
2023/08/10 08:10:33;;;;;;;;;;;19.10;98.80;;;;;;5051326;28;20361;-74
2023/08/10 08:12:59;;;;;;;;;;;19.20;98.20;;;;;;5050436;28;19920;-76
2023/08/10 08:15:25;;;;;;;;;;;19.30;98.10;;;;;;5051539;28;19918;-74
2023/08/10 08:18:09;;;;;;;;;;;19.60;98.30;;;;;;5050824;28;19939;-75
2023/08/10 08:20:36;;;;;;;;;;;20.00;97.20;;;;;;5066438;28;19913;-75
2023/08/10 08:23:01;;;;;;;;;;;20.50;97.70;;;;;;5050624;28;20461;-75
2023/08/10 08:25:28;;;;;;;;;;;21.40;96.80;;;;;;5050766;28;20234;-74
2023/08/10 08:27:53;;;;;;;;;;;21.90;94.50;;;;;;5050878;28;19904;-72
2023/08/10 08:30:19;;;;;;;;;;;21.70;93.60;;;;;;5051045;28;20250;-74
2023/08/10 08:32:44;;;;;;;;;;;20.90;93.70;;;;;;5050270;28;20186;-73
2023/08/10 08:35:10;;;;;;;;;;;21.40;93.90;;;;;;5050538;28;20350;-75
2023/08/10 08:37:35;;;;;;;;;;;22.50;93.00;;;;;;5050371;28;19909;-72
2023/08/10 08:40:00;;;;;;;;;;;23.70;91.40;;;;;;5050097;28;20280;-73
2023/08/10 08:42:27;;;;;;;;;;;24.50;90.10;;;;;;5052162;28;19966;-74
2023/08/10 08:44:53;;;;;;;;;;;25.00;87.50;;;;;;5074184;28;19999;-73
2023/08/10 08:47:19;;;;;;;;;;;24.90;83.60;;;;;;5074710;28;20344;-72
2023/08/10 08:49:45;;;;;;;;;;;24.90;85.90;;;;;;5074737;28;19913;-72
2023/08/10 08:52:10;;;;;;;;;;;25.00;85.80;;;;;;5074712;28;20018;-72
2023/08/10 08:54:36;;;;;;;;;;;23.90;85.70;;;;;;5074788;28;19905;-72
2023/08/10 08:57:02;;;;;;;;;;;23.20;86.40;;;;;;5073948;28;20606;-72
2023/08/10 08:59:27;;;;;;;;;;;23.70;88.70;;;;;;5074221;28;20249;-72
2023/08/10 09:01:54;;;;;;;;;;;24.20;87.20;;;;;;5073869;28;19919;-73
2023/08/10 09:04:20;;;;;;;;;;;25.20;84.30;;;;;;5073124;28;20303;-73
2023/08/10 09:06:45;;;;;;;;;;;26.10;82.90;;;;;;5073038;28;19904;-72
2023/08/10 09:09:11;;;;;;;;;;;27.20;81.70;;;;;;5073649;28;19901;-72
2023/08/10 09:11:36;;;;;;;;;;;28.40;77.50;;;;;;5074001;28;20404;-72
2023/08/10 09:14:06;;;;;;;;;;;29.60;73.50;;;;;;5073944;28;19937;-74
2023/08/10 09:16:32;;;;;;;;;;;29.80;69.20;;;;;;5074090;28;19958;-74
2023/08/10 09:18:58;;;;;;;;;;;30.10;66.80;;;;;;5074017;28;19904;-73
2023/08/10 09:21:23;;;;;;;;;;;29.50;66.90;;;;;;5074425;28;19976;-73
2023/08/10 09:23:52;;;;;;;;;;;29.40;67.70;;;;;;5072610;28;20338;-73
2023/08/10 09:26:19;;;;;;;;;;;29.80;64.90;;;;;;5073630;28;20362;-72
2023/08/10 09:28:45;;;;;;;;;;;29.50;64.90;;;;;;5073658;28;20362;-74
2023/08/10 09:31:11;;;;;;;;;;;30.90;62.60;;;;;;5073848;28;19954;-74
2023/08/10 09:33:37;;;;;;;;;;;31.60;63.00;;;;;;5073958;28;19975;-74
2023/08/10 09:36:04;;;;;;;;;;;31.90;59.30;;;;;;5073775;28;19919;-73
2023/08/10 09:38:29;;;;;;;;;;;30.90;59.50;;;;;;5073784;28;20344;-74
2023/08/10 09:41:11;;;;;;;;;;;30.30;59.10;;;;;;5072587;28;20027;-72
2023/08/10 09:43:37;;;;;;;;;;;29.90;60.40;;;;;;5073200;28;20282;-74
2023/08/10 09:46:06;;;;;;;;;;;30.70;58.90;;;;;;5072484;28;19939;-71
2023/08/10 09:48:40;;;;;;;;;;;30.30;57.30;;;;;;5074154;28;20331;-72
2023/08/10 09:51:06;;;;;;;;;;;27.20;61.90;;;;;;5073578;28;19958;-71
2023/08/10 09:53:32;;;;;;;;;;;27.60;62.40;;;;;;5071956;28;19970;-71
2023/08/10 09:55:58;;;;;;;;;;;28.60;61.90;;;;;;5072453;28;20338;-71
2023/08/10 09:58:24;;;;;;;;;;;29.40;58.90;;;;;;5073202;28;20368;-70
2023/08/10 10:00:50;;;;;;;;;;;29.50;57.20;;;;;;5073243;28;19909;-70
2023/08/10 10:03:22;;;;;;;;;;;29.10;58.20;;;;;;5073779;28;20246;-70
2023/08/10 10:05:49;;;;;;;;;;;30.40;58.30;;;;;;5073532;28;19919;-72
2023/08/10 10:08:16;;;;;;;;;;;30.30;56.30;;;;;;5073387;28;19916;-71
2023/08/10 10:10:42;;;;;;;;;;;29.40;58.30;;;;;;5073378;28;19908;-71
2023/08/10 10:13:12;;;;;;;;;;;29.30;59.60;;;;;;5071767;28;19916;-70
2023/08/10 10:15:39;;;;;;;;;;;27.60;61.40;;;;;;5073600;28;19904;-70
2023/08/10 10:18:05;;;;;;;;;;;26.80;62.70;;;;;;5071912;28;20350;-71
2023/08/10 10:20:31;;;;;;;;;;;25.90;63.30;;;;;;5073268;28;19908;-70
2023/08/10 10:22:57;;;;;;;;;;;25.50;64.30;;;;;;5071762;28;20342;-71
2023/08/10 10:25:23;;;;;;;;;;;25.00;64.90;;;;;;5071861;28;19909;-71
2023/08/10 10:27:49;;;;;;;;;;;25.60;65.60;;;;;;5072763;28;19904;-72
2023/08/10 10:30:18;;;;;;;;;;;26.00;64.30;;;;;;5073155;28;19920;-72
2023/08/10 10:32:45;;;;;;;;;;;26.10;64.20;;;;;;5072579;28;19924;-72
2023/08/10 10:35:14;;;;;;;;;;;25.40;63.70;;;;;;5072827;28;19942;-71
2023/08/10 10:37:40;;;;;;;;;;;25.30;64.70;;;;;;5071566;28;20297;-73
2023/08/10 10:40:24;;;;;;;;;;;25.00;66.20;;;;;;5071669;28;19958;-72
2023/08/10 10:43:01;;;;;;;;;;;24.80;66.80;;;;;;5072258;28;20175;-70
2023/08/10 10:45:27;;;;;;;;;;;24.50;65.70;;;;;;5072813;28;19929;-70
2023/08/10 10:47:55;;;;;;;;;;;24.70;66.90;;;;;;5072201;28;19916;-71
2023/08/10 10:50:24;;;;;;;;;;;25.00;68.00;;;;;;5071039;28;20335;-70
2023/08/10 10:53:00;;;;;;;;;;;25.10;67.10;;;;;;5071957;28;19916;-71
2023/08/10 10:55:27;;;;;;;;;;;25.10;66.70;;;;;;5072198;28;19909;-70
2023/08/10 10:57:53;;;;;;;;;;;25.20;65.60;;;;;;5069183;28;19987;-70
2023/08/10 11:00:19;;;;;;;;;;;25.20;65.20;;;;;;5072526;28;19995;-73
2023/08/10 11:02:45;;;;;;;;;;;25.00;65.30;;;;;;5070947;28;20276;-73
2023/08/10 11:05:14;;;;;;;;;;;24.40;66.20;;;;;;5071487;28;19909;-76
2023/08/10 11:07:42;;;;;;;;;;;24.70;68.20;;;;;;5072934;28;19966;-75
2023/08/10 11:10:08;;;;;;;;;;;24.90;68.60;;;;;;5072144;28;19920;-70
2023/08/10 11:12:36;;;;;;;;;;;24.80;69.40;;;;;;5070746;28;19913;-71
2023/08/10 11:15:02;;;;;;;;;;;24.90;71.10;;;;;;5071753;28;19916;-71
2023/08/10 11:17:28;;;;;;;;;;;25.00;70.80;;;;;;5070550;28;19908;-71
2023/08/10 11:19:54;;;;;;;;;;;25.00;70.40;;;;;;5071756;28;19935;-70
2023/08/10 11:22:20;;;;;;;;;;;25.00;68.90;;;;;;5071783;28;20338;-71
2023/08/10 11:24:46;;;;;;;;;;;24.70;68.40;;;;;;5071741;28;19909;-70
2023/08/10 11:27:11;;;;;;;;;;;24.60;67.90;;;;;;5071008;28;20010;-71
2023/08/10 11:29:37;;;;;;;;;;;24.60;68.80;;;;;;5071556;28;19908;-72
2023/08/10 11:32:02;;;;;;;;;;;24.30;68.40;;;;;;5070399;28;19912;-72
2023/08/10 11:34:28;;;;;;;;;;;24.20;67.70;;;;;;5071232;28;19973;-71
2023/08/10 11:36:54;;;;;;;;;;;24.30;68.60;;;;;;5071268;28;19909;-70
2023/08/10 11:39:20;;;;;;;;;;;24.20;69.10;;;;;;5070719;28;19916;-71
2023/08/10 11:41:46;;;;;;;;;;;24.40;68.90;;;;;;5069992;28;19923;-70
2023/08/10 11:44:23;;;;;;;;;;;24.40;69.40;;;;;;5071277;28;19928;-71
2023/08/10 11:46:49;;;;;;;;;;;24.40;68.90;;;;;;5071203;28;19908;-70
2023/08/10 11:49:15;;;;;;;;;;;24.50;69.50;;;;;;5071175;28;19917;-70
2023/08/10 11:51:41;;;;;;;;;;;24.50;68.90;;;;;;5071352;28;20254;-70
2023/08/10 11:54:07;;;;;;;;;;;24.30;69.40;;;;;;5070135;28;19927;-70
2023/08/10 11:56:33;;;;;;;;;;;24.20;70.50;;;;;;5070037;28;19919;-71
2023/08/10 11:59:09;;;;;;;;;;;24.30;70.10;;;;;;5070064;28;19909;-71
2023/08/10 12:01:45;;;;;;;;;;;24.30;68.90;;;;;;5070946;28;20261;-70
2023/08/10 12:04:11;;;;;;;;;;;24.00;67.40;;;;;;5071018;28;19916;-69
2023/08/10 12:06:40;;;;;;;;;;;24.00;67.50;;;;;;5071325;28;19962;-71
2023/08/10 12:09:12;;;;;;;;;;;24.10;66.20;;;;;;5070969;28;20357;-70
2023/08/10 12:11:45;;;;;;;;;;;24.20;67.60;;;;;;5070884;28;20306;-70
2023/08/10 12:14:10;;;;;;;;;;;23.70;66.80;;;;;;5070991;28;20019;-70
2023/08/10 12:16:36;;;;;;;;;;;23.60;67.20;;;;;;5069334;28;20019;-70
2023/08/10 12:19:02;;;;;;;;;;;23.80;68.20;;;;;;5070699;28;19918;-71
2023/08/10 12:21:27;;;;;;;;;;;24.10;69.00;;;;;;5070156;28;19904;-70
2023/08/10 12:23:55;;;;;;;;;;;24.00;67.10;;;;;;5070982;28;19912;-70
2023/08/10 12:26:21;;;;;;;;;;;23.70;66.70;;;;;;5070403;28;19916;-71
2023/08/10 12:28:47;;;;;;;;;;;23.80;66.70;;;;;;5070447;28;20361;-70
2023/08/10 12:31:13;;;;;;;;;;;23.40;68.00;;;;;;5070847;28;19909;-71
2023/08/10 12:33:39;;;;;;;;;;;23.60;68.80;;;;;;5070639;28;19969;-71
2023/08/10 12:36:05;;;;;;;;;;;23.80;68.40;;;;;;5070475;28;19916;-71
2023/08/10 12:38:31;;;;;;;;;;;23.80;67.90;;;;;;5070615;28;20250;-70
2023/08/10 12:40:57;;;;;;;;;;;23.60;68.10;;;;;;5070717;28;19908;-70
2023/08/10 12:43:22;;;;;;;;;;;23.70;69.00;;;;;;5070279;28;19968;-69
2023/08/10 12:45:48;;;;;;;;;;;23.80;68.40;;;;;;5070547;28;20303;-71
2023/08/10 12:48:14;;;;;;;;;;;24.00;68.80;;;;;;5071098;28;19970;-71
2023/08/10 12:50:39;;;;;;;;;;;24.00;67.90;;;;;;5070858;28;19935;-69
2023/08/10 12:53:05;;;;;;;;;;;24.00;68.00;;;;;;5070305;28;20231;-69
2023/08/10 12:55:32;;;;;;;;;;;24.00;67.00;;;;;;5070439;28;19913;-69
2023/08/10 12:57:57;;;;;;;;;;;23.90;66.70;;;;;;5070215;28;19905;-69
2023/08/10 13:00:23;;;;;;;;;;;24.00;66.80;;;;;;5069922;28;19915;-70
2023/08/10 13:02:48;;;;;;;;;;;24.00;67.30;;;;;;5070550;28;19919;-69
2023/08/10 13:05:15;;;;;;;;;;;24.00;67.60;;;;;;5070428;28;20342;-70
2023/08/10 13:07:41;;;;;;;;;;;24.20;67.90;;;;;;5069207;28;20236;-70
2023/08/10 13:10:07;;;;;;;;;;;24.00;67.10;;;;;;5070241;28;19975;-68
2023/08/10 13:12:33;;;;;;;;;;;23.90;68.10;;;;;;5070826;28;20294;-69
2023/08/10 13:14:59;;;;;;;;;;;24.00;67.90;;;;;;5070383;28;19909;-70
2023/08/10 13:17:28;;;;;;;;;;;24.10;67.80;;;;;;5070255;28;19920;-70
2023/08/10 13:19:58;;;;;;;;;;;24.10;68.40;;;;;;5070165;28;19912;-71
2023/08/10 13:22:27;;;;;;;;;;;24.20;68.80;;;;;;5070379;28;19927;-70
2023/08/10 13:24:53;;;;;;;;;;;24.10;68.30;;;;;;5069331;28;20350;-70
2023/08/10 13:27:18;;;;;;;;;;;24.00;67.50;;;;;;5070301;28;19900;-71
2023/08/10 13:29:44;;;;;;;;;;;24.10;67.80;;;;;;5072500;28;20008;-83
2023/08/10 13:32:10;;;;;;;;;;;24.10;67.70;;;;;;5074474;28;19923;-73
2023/08/10 13:34:36;;;;;;;;;;;24.30;67.90;;;;;;5073705;28;19920;-70
2023/08/10 13:37:01;;;;;;;;;;;24.10;67.30;;;;;;5073730;28;19915;-71
2023/08/10 13:39:28;;;;;;;;;;;24.10;67.90;;;;;;5072878;28;20021;-72
2023/08/10 13:41:54;;;;;;;;;;;24.10;67.50;;;;;;5073400;28;20254;-71
2023/08/10 13:44:19;;;;;;;;;;;24.10;68.00;;;;;;5072453;28;19912;-71
2023/08/10 13:46:46;;;;;;;;;;;24.10;68.20;;;;;;5073719;28;20408;-72
2023/08/10 13:49:12;;;;;;;;;;;24.10;68.20;;;;;;5073452;28;19912;-72
2023/08/10 13:51:38;;;;;;;;;;;23.90;68.40;;;;;;5074116;28;19904;-71
2023/08/10 13:54:05;;;;;;;;;;;23.90;69.20;;;;;;5073702;28;19912;-74
2023/08/10 13:56:50;;;;;;;;;;;23.90;69.10;;;;;;5071814;28;20307;-71
2023/08/10 13:59:16;;;;;;;;;;;24.00;69.60;;;;;;5071861;28;20258;-71
2023/08/10 14:01:41;;;;;;;;;;;24.00;69.60;;;;;;5073249;28;19908;-70
2023/08/10 14:04:07;;;;;;;;;;;24.00;69.60;;;;;;5073199;28;20398;-71
2023/08/10 14:06:33;;;;;;;;;;;23.80;69.10;;;;;;5072776;28;20010;-71
2023/08/10 14:08:59;;;;;;;;;;;23.80;69.60;;;;;;5073312;28;20045;-71
2023/08/10 14:11:25;;;;;;;;;;;23.70;69.50;;;;;;5072829;28;19916;-71